sensor_id;sensor_type;location;lat;lon;timestamp;P1;durP1;ratioP1;P2;durP2;ratioP2
45650;SDS011;31365;48.858;8.530;2023-01-29T00:01:09;5.07;;;4.57;;
45650;SDS011;31365;48.858;8.530;2023-01-29T00:03:38;5.03;;;4.53;;
45650;SDS011;31365;48.858;8.530;2023-01-29T00:06:07;5.00;;;4.53;;
45650;SDS011;31365;48.858;8.530;2023-01-29T00:08:38;5.30;;;4.80;;
45650;SDS011;31365;48.858;8.530;2023-01-29T00:11:07;5.15;;;4.75;;
45650;SDS011;31365;48.858;8.530;2023-01-29T00:13:37;5.00;;;4.50;;
45650;SDS011;31365;48.858;8.530;2023-01-29T00:16:06;5.28;;;4.78;;
45650;SDS011;31365;48.858;8.530;2023-01-29T00:18:38;5.10;;;4.60;;
45650;SDS011;31365;48.858;8.530;2023-01-29T00:21:08;5.32;;;4.82;;
45650;SDS011;31365;48.858;8.530;2023-01-29T00:23:37;5.07;;;4.68;;
45650;SDS011;31365;48.858;8.530;2023-01-29T00:26:07;5.47;;;4.88;;
45650;SDS011;31365;48.858;8.530;2023-01-29T00:28:39;4.88;;;4.47;;
45650;SDS011;31365;48.858;8.530;2023-01-29T00:31:08;5.13;;;4.63;;
45650;SDS011;31365;48.858;8.530;2023-01-29T00:33:40;4.88;;;4.47;;
45650;SDS011;31365;48.858;8.530;2023-01-29T00:36:10;5.00;;;4.55;;
45650;SDS011;31365;48.858;8.530;2023-01-29T00:38:41;4.50;;;4.10;;
45650;SDS011;31365;48.858;8.530;2023-01-29T00:41:10;5.00;;;4.60;;
45650;SDS011;31365;48.858;8.530;2023-01-29T00:44:00;4.63;;;4.22;;
45650;SDS011;31365;48.858;8.530;2023-01-29T00:46:47;5.13;;;4.72;;
45650;SDS011;31365;48.858;8.530;2023-01-29T00:49:16;4.50;;;4.10;;
45650;SDS011;31365;48.858;8.530;2023-01-29T00:51:44;4.80;;;4.40;;
45650;SDS011;31365;48.858;8.530;2023-01-29T00:54:34;4.68;;;4.25;;
45650;SDS011;31365;48.858;8.530;2023-01-29T00:57:03;4.82;;;4.40;;
45650;SDS011;31365;48.858;8.530;2023-01-29T00:59:32;4.80;;;4.40;;
45650;SDS011;31365;48.858;8.530;2023-01-29T01:02:00;5.03;;;4.53;;
45650;SDS011;31365;48.858;8.530;2023-01-29T01:04:48;5.32;;;4.82;;
45650;SDS011;31365;48.858;8.530;2023-01-29T01:07:16;5.22;;;4.72;;
45650;SDS011;31365;48.858;8.530;2023-01-29T01:09:46;5.00;;;4.45;;
45650;SDS011;31365;48.858;8.530;2023-01-29T01:12:32;5.10;;;4.60;;
45650;SDS011;31365;48.858;8.530;2023-01-29T01:15:00;4.82;;;4.43;;
45650;SDS011;31365;48.858;8.530;2023-01-29T01:17:29;4.88;;;4.45;;
45650;SDS011;31365;48.858;8.530;2023-01-29T01:19:59;4.97;;;4.47;;
45650;SDS011;31365;48.858;8.530;2023-01-29T01:22:27;4.85;;;4.35;;
45650;SDS011;31365;48.858;8.530;2023-01-29T01:24:56;4.65;;;4.25;;
45650;SDS011;31365;48.858;8.530;2023-01-29T01:27:25;4.75;;;4.32;;
45650;SDS011;31365;48.858;8.530;2023-01-29T01:29:53;5.38;;;4.88;;
45650;SDS011;31365;48.858;8.530;2023-01-29T01:32:22;4.50;;;4.10;;
45650;SDS011;31365;48.858;8.530;2023-01-29T01:34:51;4.72;;;4.32;;
45650;SDS011;31365;48.858;8.530;2023-01-29T01:37:22;4.37;;;4.07;;
45650;SDS011;31365;48.858;8.530;2023-01-29T01:39:51;4.53;;;4.10;;
45650;SDS011;31365;48.858;8.530;2023-01-29T01:42:26;4.13;;;3.83;;
45650;SDS011;31365;48.858;8.530;2023-01-29T01:44:57;5.78;;;4.70;;
45650;SDS011;31365;48.858;8.530;2023-01-29T01:47:31;4.10;;;3.80;;
45650;SDS011;31365;48.858;8.530;2023-01-29T01:50:06;5.15;;;4.47;;
45650;SDS011;31365;48.858;8.530;2023-01-29T01:52:44;4.97;;;4.47;;
45650;SDS011;31365;48.858;8.530;2023-01-29T01:55:18;4.67;;;4.27;;
45650;SDS011;31365;48.858;8.530;2023-01-29T01:57:53;5.03;;;4.43;;
45650;SDS011;31365;48.858;8.530;2023-01-29T02:00:28;4.65;;;4.25;;
45650;SDS011;31365;48.858;8.530;2023-01-29T02:02:57;5.03;;;4.53;;
45650;SDS011;31365;48.858;8.530;2023-01-29T02:05:47;4.90;;;4.50;;
45650;SDS011;31365;48.858;8.530;2023-01-29T02:08:37;4.68;;;4.28;;
45650;SDS011;31365;48.858;8.530;2023-01-29T02:11:34;4.93;;;4.53;;
45650;SDS011;31365;48.858;8.530;2023-01-29T02:14:03;4.80;;;4.30;;
45650;SDS011;31365;48.858;8.530;2023-01-29T02:16:33;5.00;;;4.57;;
45650;SDS011;31365;48.858;8.530;2023-01-29T02:19:03;4.72;;;4.32;;
45650;SDS011;31365;48.858;8.530;2023-01-29T02:25:11;4.53;;;4.13;;
45650;SDS011;31365;48.858;8.530;2023-01-29T02:28:07;4.80;;;4.40;;
45650;SDS011;31365;48.858;8.530;2023-01-29T02:30:49;4.90;;;4.50;;
45650;SDS011;31365;48.858;8.530;2023-01-29T02:33:35;4.53;;;4.13;;
45650;SDS011;31365;48.858;8.530;2023-01-29T02:36:21;4.70;;;4.30;;
45650;SDS011;31365;48.858;8.530;2023-01-29T02:39:05;4.95;;;4.35;;
45650;SDS011;31365;48.858;8.530;2023-01-29T02:41:45;4.80;;;4.40;;
45650;SDS011;31365;48.858;8.530;2023-01-29T02:44:27;5.03;;;4.53;;
45650;SDS011;31365;48.858;8.530;2023-01-29T02:47:07;4.72;;;4.32;;
45650;SDS011;31365;48.858;8.530;2023-01-29T02:49:46;4.88;;;4.47;;
45650;SDS011;31365;48.858;8.530;2023-01-29T02:52:24;4.97;;;4.53;;
45650;SDS011;31365;48.858;8.530;2023-01-29T02:55:03;4.35;;;3.95;;
45650;SDS011;31365;48.858;8.530;2023-01-29T02:57:40;5.10;;;4.60;;
45650;SDS011;31365;48.858;8.530;2023-01-29T03:00:15;5.25;;;4.30;;
45650;SDS011;31365;48.858;8.530;2023-01-29T03:02:50;4.80;;;4.40;;
45650;SDS011;31365;48.858;8.530;2023-01-29T03:05:27;5.00;;;4.60;;
45650;SDS011;31365;48.858;8.530;2023-01-29T03:08:05;5.20;;;4.70;;
45650;SDS011;31365;48.858;8.530;2023-01-29T03:10:37;5.20;;;4.70;;
45650;SDS011;31365;48.858;8.530;2023-01-29T03:13:17;4.93;;;4.47;;
45650;SDS011;31365;48.858;8.530;2023-01-29T03:16:00;5.07;;;4.68;;
45650;SDS011;31365;48.858;8.530;2023-01-29T03:18:43;5.55;;;5.05;;
45650;SDS011;31365;48.858;8.530;2023-01-29T03:21:20;5.07;;;4.57;;
45650;SDS011;31365;48.858;8.530;2023-01-29T03:24:23;4.70;;;4.30;;
45650;SDS011;31365;48.858;8.530;2023-01-29T03:27:24;4.60;;;4.20;;
45650;SDS011;31365;48.858;8.530;2023-01-29T03:30:17;4.65;;;4.25;;
45650;SDS011;31365;48.858;8.530;2023-01-29T03:33:21;5.07;;;4.60;;
45650;SDS011;31365;48.858;8.530;2023-01-29T03:35:55;5.03;;;4.63;;
45650;SDS011;31365;48.858;8.530;2023-01-29T03:38:32;4.80;;;4.40;;
45650;SDS011;31365;48.858;8.530;2023-01-29T03:41:03;5.10;;;4.70;;
45650;SDS011;31365;48.858;8.530;2023-01-29T03:43:44;5.25;;;4.80;;
45650;SDS011;31365;48.858;8.530;2023-01-29T03:46:23;5.15;;;4.63;;
45650;SDS011;31365;48.858;8.530;2023-01-29T03:49:01;6.78;;;4.72;;
45650;SDS011;31365;48.858;8.530;2023-01-29T03:51:44;4.50;;;4.10;;
45650;SDS011;31365;48.858;8.530;2023-01-29T03:54:27;4.72;;;4.32;;
45650;SDS011;31365;48.858;8.530;2023-01-29T03:57:08;4.95;;;4.55;;
45650;SDS011;31365;48.858;8.530;2023-01-29T03:59:48;4.63;;;4.22;;
45650;SDS011;31365;48.858;8.530;2023-01-29T04:02:41;4.93;;;4.20;;
45650;SDS011;31365;48.858;8.530;2023-01-29T04:05:21;5.57;;;4.82;;
45650;SDS011;31365;48.858;8.530;2023-01-29T04:08:09;4.80;;;4.40;;
45650;SDS011;31365;48.858;8.530;2023-01-29T04:10:45;4.93;;;4.30;;
45650;SDS011;31365;48.858;8.530;2023-01-29T04:13:18;4.88;;;4.38;;
45650;SDS011;31365;48.858;8.530;2023-01-29T04:15:49;4.65;;;4.25;;
45650;SDS011;31365;48.858;8.530;2023-01-29T04:18:48;5.05;;;4.65;;
45650;SDS011;31365;48.858;8.530;2023-01-29T04:21:25;4.70;;;4.30;;
45650;SDS011;31365;48.858;8.530;2023-01-29T04:23:57;4.88;;;4.40;;
45650;SDS011;31365;48.858;8.530;2023-01-29T04:26:47;4.72;;;4.32;;
45650;SDS011;31365;48.858;8.530;2023-01-29T04:29:31;4.57;;;4.25;;
45650;SDS011;31365;48.858;8.530;2023-01-29T04:32:14;5.17;;;4.70;;
45650;SDS011;31365;48.858;8.530;2023-01-29T04:34:57;5.03;;;4.63;;
45650;SDS011;31365;48.858;8.530;2023-01-29T04:37:34;5.03;;;4.55;;
45650;SDS011;31365;48.858;8.530;2023-01-29T04:40:12;4.82;;;4.43;;
45650;SDS011;31365;48.858;8.530;2023-01-29T04:42:48;5.00;;;4.50;;
45650;SDS011;31365;48.858;8.530;2023-01-29T04:45:34;4.60;;;4.20;;
45650;SDS011;31365;48.858;8.530;2023-01-29T04:48:17;5.13;;;4.63;;
45650;SDS011;31365;48.858;8.530;2023-01-29T04:50:54;5.20;;;4.60;;
45650;SDS011;31365;48.858;8.530;2023-01-29T04:53:36;5.00;;;4.60;;
45650;SDS011;31365;48.858;8.530;2023-01-29T04:56:19;5.10;;;4.70;;
45650;SDS011;31365;48.858;8.530;2023-01-29T04:59:02;4.97;;;4.45;;
45650;SDS011;31365;48.858;8.530;2023-01-29T05:01:38;4.68;;;4.20;;
45650;SDS011;31365;48.858;8.530;2023-01-29T05:04:07;4.78;;;4.38;;
45650;SDS011;31365;48.858;8.530;2023-01-29T05:06:41;5.53;;;4.75;;
45650;SDS011;31365;48.858;8.530;2023-01-29T05:09:14;5.20;;;4.70;;
45650;SDS011;31365;48.858;8.530;2023-01-29T05:11:45;4.63;;;4.22;;
45650;SDS011;31365;48.858;8.530;2023-01-29T05:14:17;4.32;;;4.03;;
45650;SDS011;31365;48.858;8.530;2023-01-29T05:16:49;5.00;;;4.60;;
45650;SDS011;31365;48.858;8.530;2023-01-29T05:19:22;5.13;;;4.68;;
45650;SDS011;31365;48.858;8.530;2023-01-29T05:21:51;4.72;;;4.32;;
45650;SDS011;31365;48.858;8.530;2023-01-29T05:24:23;5.40;;;4.90;;
45650;SDS011;31365;48.858;8.530;2023-01-29T05:26:54;5.05;;;4.65;;
45650;SDS011;31365;48.858;8.530;2023-01-29T05:29:41;5.45;;;4.95;;
45650;SDS011;31365;48.858;8.530;2023-01-29T05:32:12;5.40;;;4.90;;
45650;SDS011;31365;48.858;8.530;2023-01-29T05:34:42;5.15;;;4.72;;
45650;SDS011;31365;48.858;8.530;2023-01-29T05:37:10;5.22;;;4.75;;
45650;SDS011;31365;48.858;8.530;2023-01-29T05:39:40;5.00;;;4.60;;
45650;SDS011;31365;48.858;8.530;2023-01-29T05:42:09;5.13;;;4.63;;
45650;SDS011;31365;48.858;8.530;2023-01-29T05:44:37;4.82;;;4.43;;
45650;SDS011;31365;48.858;8.530;2023-01-29T05:47:05;4.70;;;4.30;;
45650;SDS011;31365;48.858;8.530;2023-01-29T05:49:35;4.70;;;4.30;;
45650;SDS011;31365;48.858;8.530;2023-01-29T05:52:05;3.20;;;3.00;;
45650;SDS011;31365;48.858;8.530;2023-01-29T05:54:33;4.33;;;3.40;;
45650;SDS011;31365;48.858;8.530;2023-01-29T05:57:03;4.00;;;3.67;;
45650;SDS011;31365;48.858;8.530;2023-01-29T05:59:31;3.60;;;3.30;;
45650;SDS011;31365;48.858;8.530;2023-01-29T06:02:00;3.50;;;3.20;;
45650;SDS011;31365;48.858;8.530;2023-01-29T06:04:28;2.60;;;2.40;;
45650;SDS011;31365;48.858;8.530;2023-01-29T06:06:57;2.40;;;2.20;;
45650;SDS011;31365;48.858;8.530;2023-01-29T06:09:26;2.70;;;2.50;;
45650;SDS011;31365;48.858;8.530;2023-01-29T06:11:54;2.65;;;2.45;;
45650;SDS011;31365;48.858;8.530;2023-01-29T06:14:24;4.45;;;2.90;;
45650;SDS011;31365;48.858;8.530;2023-01-29T06:16:53;2.83;;;2.63;;
45650;SDS011;31365;48.858;8.530;2023-01-29T06:19:21;5.67;;;2.60;;
45650;SDS011;31365;48.858;8.530;2023-01-29T06:21:50;2.60;;;2.40;;
45650;SDS011;31365;48.858;8.530;2023-01-29T06:24:19;2.70;;;2.50;;
45650;SDS011;31365;48.858;8.530;2023-01-29T06:26:47;2.50;;;2.30;;
45650;SDS011;31365;48.858;8.530;2023-01-29T06:29:18;2.72;;;2.53;;
45650;SDS011;31365;48.858;8.530;2023-01-29T06:31:48;2.47;;;2.28;;
45650;SDS011;31365;48.858;8.530;2023-01-29T06:34:17;2.10;;;2.00;;
45650;SDS011;31365;48.858;8.530;2023-01-29T06:36:45;2.20;;;2.00;;
45650;SDS011;31365;48.858;8.530;2023-01-29T06:39:14;2.50;;;2.30;;
45650;SDS011;31365;48.858;8.530;2023-01-29T06:41:44;2.72;;;2.38;;
45650;SDS011;31365;48.858;8.530;2023-01-29T06:44:13;2.42;;;2.22;;
45650;SDS011;31365;48.858;8.530;2023-01-29T06:46:41;3.03;;;2.30;;
45650;SDS011;31365;48.858;8.530;2023-01-29T06:49:12;3.00;;;2.10;;
45650;SDS011;31365;48.858;8.530;2023-01-29T06:51:40;2.30;;;2.10;;
45650;SDS011;31365;48.858;8.530;2023-01-29T06:54:09;2.33;;;2.13;;
45650;SDS011;31365;48.858;8.530;2023-01-29T06:56:38;2.00;;;1.90;;
45650;SDS011;31365;48.858;8.530;2023-01-29T06:59:06;2.27;;;2.17;;
45650;SDS011;31365;48.858;8.530;2023-01-29T07:01:37;2.20;;;2.10;;
45650;SDS011;31365;48.858;8.530;2023-01-29T07:04:07;2.67;;;2.27;;
45650;SDS011;31365;48.858;8.530;2023-01-29T07:06:37;2.87;;;2.67;;
45650;SDS011;31365;48.858;8.530;2023-01-29T07:09:06;3.83;;;3.42;;
45650;SDS011;31365;48.858;8.530;2023-01-29T07:11:34;4.07;;;3.45;;
45650;SDS011;31365;48.858;8.530;2023-01-29T07:14:04;4.00;;;3.70;;
45650;SDS011;31365;48.858;8.530;2023-01-29T07:16:33;4.68;;;3.72;;
45650;SDS011;31365;48.858;8.530;2023-01-29T07:19:01;3.80;;;3.50;;
45650;SDS011;31365;48.858;8.530;2023-01-29T07:21:30;4.10;;;3.70;;
45650;SDS011;31365;48.858;8.530;2023-01-29T07:24:00;3.80;;;3.50;;
45650;SDS011;31365;48.858;8.530;2023-01-29T07:26:29;3.72;;;3.42;;
45650;SDS011;31365;48.858;8.530;2023-01-29T07:28:58;4.95;;;4.35;;
45650;SDS011;31365;48.858;8.530;2023-01-29T07:31:27;4.97;;;4.47;;
45650;SDS011;31365;48.858;8.530;2023-01-29T07:33:56;4.30;;;3.90;;
45650;SDS011;31365;48.858;8.530;2023-01-29T07:36:24;4.75;;;4.03;;
45650;SDS011;31365;48.858;8.530;2023-01-29T07:38:54;5.40;;;4.90;;
45650;SDS011;31365;48.858;8.530;2023-01-29T07:41:23;4.85;;;4.45;;
45650;SDS011;31365;48.858;8.530;2023-01-29T07:43:53;5.35;;;4.95;;
45650;SDS011;31365;48.858;8.530;2023-01-29T07:46:22;4.93;;;4.47;;
45650;SDS011;31365;48.858;8.530;2023-01-29T07:48:50;4.72;;;4.32;;
45650;SDS011;31365;48.858;8.530;2023-01-29T07:51:18;4.85;;;4.35;;
45650;SDS011;31365;48.858;8.530;2023-01-29T07:53:47;5.00;;;4.45;;
45650;SDS011;31365;48.858;8.530;2023-01-29T07:56:16;5.65;;;4.50;;
45650;SDS011;31365;48.858;8.530;2023-01-29T07:58:46;4.68;;;4.28;;
45650;SDS011;31365;48.858;8.530;2023-01-29T08:01:15;6.70;;;4.50;;
45650;SDS011;31365;48.858;8.530;2023-01-29T08:03:43;4.30;;;3.90;;
45650;SDS011;31365;48.858;8.530;2023-01-29T08:06:12;5.40;;;4.30;;
45650;SDS011;31365;48.858;8.530;2023-01-29T08:08:40;5.25;;;4.75;;
45650;SDS011;31365;48.858;8.530;2023-01-29T08:11:09;4.80;;;4.30;;
45650;SDS011;31365;48.858;8.530;2023-01-29T08:13:37;4.95;;;4.50;;
45650;SDS011;31365;48.858;8.530;2023-01-29T08:16:07;7.20;;;4.82;;
45650;SDS011;31365;48.858;8.530;2023-01-29T08:18:36;10.13;;;4.53;;
45650;SDS011;31365;48.858;8.530;2023-01-29T08:21:07;4.70;;;4.30;;
45650;SDS011;31365;48.858;8.530;2023-01-29T08:23:39;4.82;;;4.43;;
45650;SDS011;31365;48.858;8.530;2023-01-29T08:26:08;8.45;;;4.97;;
45650;SDS011;31365;48.858;8.530;2023-01-29T08:28:36;4.80;;;4.40;;
45650;SDS011;31365;48.858;8.530;2023-01-29T08:31:13;4.75;;;4.30;;
45650;SDS011;31365;48.858;8.530;2023-01-29T08:33:42;4.93;;;4.53;;
45650;SDS011;31365;48.858;8.530;2023-01-29T08:36:10;7.80;;;5.40;;
45650;SDS011;31365;48.858;8.530;2023-01-29T08:38:39;8.68;;;7.75;;
45650;SDS011;31365;48.858;8.530;2023-01-29T08:41:08;7.18;;;5.00;;
45650;SDS011;31365;48.858;8.530;2023-01-29T08:43:36;5.55;;;4.97;;
45650;SDS011;31365;48.858;8.530;2023-01-29T08:46:06;4.55;;;4.07;;
45650;SDS011;31365;48.858;8.530;2023-01-29T08:48:37;6.80;;;4.72;;
45650;SDS011;31365;48.858;8.530;2023-01-29T08:51:07;4.70;;;4.30;;
45650;SDS011;31365;48.858;8.530;2023-01-29T08:53:36;5.13;;;4.63;;
45650;SDS011;31365;48.858;8.530;2023-01-29T08:56:06;6.30;;;4.60;;
45650;SDS011;31365;48.858;8.530;2023-01-29T08:58:35;4.65;;;4.25;;
45650;SDS011;31365;48.858;8.530;2023-01-29T09:01:04;8.73;;;5.20;;
45650;SDS011;31365;48.858;8.530;2023-01-29T09:03:35;4.88;;;4.18;;
45650;SDS011;31365;48.858;8.530;2023-01-29T09:06:07;4.72;;;4.07;;
45650;SDS011;31365;48.858;8.530;2023-01-29T09:08:38;4.07;;;3.67;;
45650;SDS011;31365;48.858;8.530;2023-01-29T09:11:08;4.10;;;3.80;;
45650;SDS011;31365;48.858;8.530;2023-01-29T09:13:39;6.32;;;4.28;;
45650;SDS011;31365;48.858;8.530;2023-01-29T09:16:08;5.15;;;4.30;;
45650;SDS011;31365;48.858;8.530;2023-01-29T09:18:38;4.70;;;4.10;;
45650;SDS011;31365;48.858;8.530;2023-01-29T09:21:07;4.43;;;4.03;;
45650;SDS011;31365;48.858;8.530;2023-01-29T09:23:35;5.70;;;3.53;;
45650;SDS011;31365;48.858;8.530;2023-01-29T09:26:03;17.65;;;7.22;;
45650;SDS011;31365;48.858;8.530;2023-01-29T09:28:34;7.97;;;3.50;;
45650;SDS011;31365;48.858;8.530;2023-01-29T09:31:03;4.55;;;4.00;;
45650;SDS011;31365;48.858;8.530;2023-01-29T09:33:32;3.90;;;3.58;;
45650;SDS011;31365;48.858;8.530;2023-01-29T09:36:02;4.55;;;4.22;;
45650;SDS011;31365;48.858;8.530;2023-01-29T09:38:31;4.80;;;3.50;;
45650;SDS011;31365;48.858;8.530;2023-01-29T09:41:05;3.97;;;3.57;;
45650;SDS011;31365;48.858;8.530;2023-01-29T09:43:54;3.72;;;2.88;;
45650;SDS011;31365;48.858;8.530;2023-01-29T09:46:29;4.63;;;3.25;;
45650;SDS011;31365;48.858;8.530;2023-01-29T09:49:07;4.47;;;3.90;;
45650;SDS011;31365;48.858;8.530;2023-01-29T09:51:48;8.63;;;5.03;;
45650;SDS011;31365;48.858;8.530;2023-01-29T09:54:23;7.75;;;7.03;;
45650;SDS011;31365;48.858;8.530;2023-01-29T09:56:54;5.27;;;4.77;;
45650;SDS011;31365;48.858;8.530;2023-01-29T09:59:25;5.23;;;3.43;;
45650;SDS011;31365;48.858;8.530;2023-01-29T10:01:59;5.38;;;3.80;;
45650;SDS011;31365;48.858;8.530;2023-01-29T10:04:51;3.70;;;2.55;;
45650;SDS011;31365;48.858;8.530;2023-01-29T10:07:52;6.18;;;5.57;;
45650;SDS011;31365;48.858;8.530;2023-01-29T10:10:58;4.77;;;3.93;;
45650;SDS011;31365;48.858;8.530;2023-01-29T10:13:39;3.65;;;3.30;;
45650;SDS011;31365;48.858;8.530;2023-01-29T10:16:22;3.00;;;2.78;;
45650;SDS011;31365;48.858;8.530;2023-01-29T10:19:16;2.58;;;2.38;;
45650;SDS011;31365;48.858;8.530;2023-01-29T10:22:30;6.32;;;3.60;;
45650;SDS011;31365;48.858;8.530;2023-01-29T10:25:24;3.50;;;2.80;;
45650;SDS011;31365;48.858;8.530;2023-01-29T10:27:53;3.03;;;2.83;;
45650;SDS011;31365;48.858;8.530;2023-01-29T10:30:28;7.10;;;5.25;;
45650;SDS011;31365;48.858;8.530;2023-01-29T10:33:02;3.60;;;3.30;;
45650;SDS011;31365;48.858;8.530;2023-01-29T10:35:34;11.15;;;8.52;;
45650;SDS011;31365;48.858;8.530;2023-01-29T10:38:14;11.07;;;4.75;;
45650;SDS011;31365;48.858;8.530;2023-01-29T10:41:00;4.40;;;4.00;;
45650;SDS011;31365;48.858;8.530;2023-01-29T10:43:47;7.95;;;5.40;;
45650;SDS011;31365;48.858;8.530;2023-01-29T10:46:32;6.57;;;4.88;;
45650;SDS011;31365;48.858;8.530;2023-01-29T10:49:15;23.85;;;6.22;;
45650;SDS011;31365;48.858;8.530;2023-01-29T10:52:08;11.20;;;5.90;;
45650;SDS011;31365;48.858;8.530;2023-01-29T10:55:01;8.05;;;3.67;;
45650;SDS011;31365;48.858;8.530;2023-01-29T10:57:51;61.92;;;11.25;;
45650;SDS011;31365;48.858;8.530;2023-01-29T11:00:36;8.97;;;4.47;;
45650;SDS011;31365;48.858;8.530;2023-01-29T11:03:14;14.05;;;8.20;;
45650;SDS011;31365;48.858;8.530;2023-01-29T11:05:55;12.83;;;4.30;;
45650;SDS011;31365;48.858;8.530;2023-01-29T11:08:36;9.82;;;7.63;;
45650;SDS011;31365;48.858;8.530;2023-01-29T11:11:13;12.53;;;4.20;;
45650;SDS011;31365;48.858;8.530;2023-01-29T11:13:44;9.02;;;5.32;;
45650;SDS011;31365;48.858;8.530;2023-01-29T11:16:22;4.00;;;3.30;;
45650;SDS011;31365;48.858;8.530;2023-01-29T11:18:53;3.53;;;2.78;;
45650;SDS011;31365;48.858;8.530;2023-01-29T11:21:25;4.50;;;3.28;;
45650;SDS011;31365;48.858;8.530;2023-01-29T11:24:06;7.05;;;5.65;;
45650;SDS011;31365;48.858;8.530;2023-01-29T11:26:44;4.53;;;3.10;;
45650;SDS011;31365;48.858;8.530;2023-01-29T11:29:32;7.07;;;6.45;;
45650;SDS011;31365;48.858;8.530;2023-01-29T11:32:07;4.18;;;3.78;;
45650;SDS011;31365;48.858;8.530;2023-01-29T11:34:54;3.20;;;2.90;;
45650;SDS011;31365;48.858;8.530;2023-01-29T11:37:32;2.72;;;2.53;;
45650;SDS011;31365;48.858;8.530;2023-01-29T11:43:22;3.25;;;2.95;;
45650;SDS011;31365;48.858;8.530;2023-01-29T11:45:57;6.53;;;5.50;;
45650;SDS011;31365;48.858;8.530;2023-01-29T11:48:33;3.15;;;2.95;;
45650;SDS011;31365;48.858;8.530;2023-01-29T11:51:10;3.72;;;3.13;;
45650;SDS011;31365;48.858;8.530;2023-01-29T11:53:50;3.70;;;2.63;;
45650;SDS011;31365;48.858;8.530;2023-01-29T11:56:25;3.10;;;2.80;;
45650;SDS011;31365;48.858;8.530;2023-01-29T11:58:58;5.65;;;5.10;;
45650;SDS011;31365;48.858;8.530;2023-01-29T12:01:31;4.20;;;3.83;;
45650;SDS011;31365;48.858;8.530;2023-01-29T12:04:10;3.78;;;3.47;;
45650;SDS011;31365;48.858;8.530;2023-01-29T12:06:47;6.13;;;4.90;;
45650;SDS011;31365;48.858;8.530;2023-01-29T12:09:19;4.00;;;3.60;;
45650;SDS011;31365;48.858;8.530;2023-01-29T12:11:53;35.15;;;28.35;;
45650;SDS011;31365;48.858;8.530;2023-01-29T12:14:25;52.03;;;40.28;;
45650;SDS011;31365;48.858;8.530;2023-01-29T12:17:00;23.60;;;20.45;;
45650;SDS011;31365;48.858;8.530;2023-01-29T12:19:39;87.20;;;56.80;;
45650;SDS011;31365;48.858;8.530;2023-01-29T12:22:14;39.97;;;30.80;;
45650;SDS011;31365;48.858;8.530;2023-01-29T12:24:53;9.57;;;8.60;;
45650;SDS011;31365;48.858;8.530;2023-01-29T12:27:30;26.20;;;22.87;;
45650;SDS011;31365;48.858;8.530;2023-01-29T12:30:11;9.07;;;8.17;;
45650;SDS011;31365;48.858;8.530;2023-01-29T12:32:51;11.67;;;10.53;;
45650;SDS011;31365;48.858;8.530;2023-01-29T12:35:30;4.13;;;3.80;;
45650;SDS011;31365;48.858;8.530;2023-01-29T12:38:07;17.92;;;7.05;;
45650;SDS011;31365;48.858;8.530;2023-01-29T12:40:45;9.30;;;6.80;;
45650;SDS011;31365;48.858;8.530;2023-01-29T12:43:21;4.20;;;3.80;;
45650;SDS011;31365;48.858;8.530;2023-01-29T12:45:59;8.52;;;7.70;;
45650;SDS011;31365;48.858;8.530;2023-01-29T12:48:30;4.20;;;3.80;;
45650;SDS011;31365;48.858;8.530;2023-01-29T12:51:05;3.45;;;3.10;;
45650;SDS011;31365;48.858;8.530;2023-01-29T12:53:40;5.73;;;3.90;;
45650;SDS011;31365;48.858;8.530;2023-01-29T12:56:18;7.30;;;4.32;;
45650;SDS011;31365;48.858;8.530;2023-01-29T12:58:58;3.90;;;3.58;;
45650;SDS011;31365;48.858;8.530;2023-01-29T13:01:35;6.03;;;5.43;;
45650;SDS011;31365;48.858;8.530;2023-01-29T13:04:12;3.85;;;3.55;;
45650;SDS011;31365;48.858;8.530;2023-01-29T13:06:58;4.60;;;4.18;;
45650;SDS011;31365;48.858;8.530;2023-01-29T13:09:37;4.13;;;3.73;;
45650;SDS011;31365;48.858;8.530;2023-01-29T13:12:15;5.35;;;3.97;;
45650;SDS011;31365;48.858;8.530;2023-01-29T13:14:46;5.20;;;4.70;;
45650;SDS011;31365;48.858;8.530;2023-01-29T13:17:24;4.00;;;3.60;;
45650;SDS011;31365;48.858;8.530;2023-01-29T13:20:00;3.65;;;3.30;;
45650;SDS011;31365;48.858;8.530;2023-01-29T13:22:39;4.30;;;3.95;;
45650;SDS011;31365;48.858;8.530;2023-01-29T13:25:11;5.57;;;5.07;;
45650;SDS011;31365;48.858;8.530;2023-01-29T13:27:44;4.53;;;4.13;;
45650;SDS011;31365;48.858;8.530;2023-01-29T13:30:25;4.53;;;3.92;;
45650;SDS011;31365;48.858;8.530;2023-01-29T13:33:02;4.50;;;4.10;;
45650;SDS011;31365;48.858;8.530;2023-01-29T13:35:37;5.65;;;5.13;;
45650;SDS011;31365;48.858;8.530;2023-01-29T13:38:29;7.70;;;6.80;;
45650;SDS011;31365;48.858;8.530;2023-01-29T13:41:02;4.43;;;4.13;;
45650;SDS011;31365;48.858;8.530;2023-01-29T13:43:35;4.55;;;4.15;;
45650;SDS011;31365;48.858;8.530;2023-01-29T13:46:08;4.35;;;4.03;;
45650;SDS011;31365;48.858;8.530;2023-01-29T13:48:43;4.45;;;4.05;;
45650;SDS011;31365;48.858;8.530;2023-01-29T13:51:16;4.30;;;4.00;;
45650;SDS011;31365;48.858;8.530;2023-01-29T13:53:51;8.68;;;6.70;;
45650;SDS011;31365;48.858;8.530;2023-01-29T13:56:27;11.93;;;10.60;;
45650;SDS011;31365;48.858;8.530;2023-01-29T13:59:19;4.68;;;4.22;;
45650;SDS011;31365;48.858;8.530;2023-01-29T14:02:01;21.92;;;7.65;;
45650;SDS011;31365;48.858;8.530;2023-01-29T14:04:47;6.78;;;6.07;;
45650;SDS011;31365;48.858;8.530;2023-01-29T14:10:18;4.57;;;4.07;;
45650;SDS011;31365;48.858;8.530;2023-01-29T14:12:51;4.97;;;4.55;;
45650;SDS011;31365;48.858;8.530;2023-01-29T14:15:25;6.55;;;5.95;;
45650;SDS011;31365;48.858;8.530;2023-01-29T14:17:59;5.68;;;5.03;;
45650;SDS011;31365;48.858;8.530;2023-01-29T14:20:56;5.65;;;5.18;;
45650;SDS011;31365;48.858;8.530;2023-01-29T14:23:40;5.63;;;5.22;;
45650;SDS011;31365;48.858;8.530;2023-01-29T14:29:16;5.53;;;5.03;;
45650;SDS011;31365;48.858;8.530;2023-01-29T14:32:08;5.47;;;4.97;;
45650;SDS011;31365;48.858;8.530;2023-01-29T14:34:47;5.22;;;4.72;;
45650;SDS011;31365;48.858;8.530;2023-01-29T14:37:26;6.85;;;5.50;;
45650;SDS011;31365;48.858;8.530;2023-01-29T14:40:07;6.20;;;5.60;;
45650;SDS011;31365;48.858;8.530;2023-01-29T14:42:52;6.03;;;5.50;;
45650;SDS011;31365;48.858;8.530;2023-01-29T14:45:27;5.95;;;5.35;;
45650;SDS011;31365;48.858;8.530;2023-01-29T14:48:02;5.32;;;4.82;;
45650;SDS011;31365;48.858;8.530;2023-01-29T14:50:58;5.93;;;5.33;;
45650;SDS011;31365;48.858;8.530;2023-01-29T14:53:52;5.28;;;4.78;;
45650;SDS011;31365;48.858;8.530;2023-01-29T14:56:30;4.90;;;4.53;;
45650;SDS011;31365;48.858;8.530;2023-01-29T14:59:09;5.75;;;5.25;;
45650;SDS011;31365;48.858;8.530;2023-01-29T15:01:46;16.27;;;6.53;;
45650;SDS011;31365;48.858;8.530;2023-01-29T15:04:24;7.30;;;6.68;;
45650;SDS011;31365;48.858;8.530;2023-01-29T15:06:58;6.20;;;5.60;;
45650;SDS011;31365;48.858;8.530;2023-01-29T15:09:36;8.68;;;6.35;;
45650;SDS011;31365;48.858;8.530;2023-01-29T15:12:15;6.65;;;5.95;;
45650;SDS011;31365;48.858;8.530;2023-01-29T15:14:58;6.45;;;5.75;;
45650;SDS011;31365;48.858;8.530;2023-01-29T15:17:38;5.80;;;5.30;;
45650;SDS011;31365;48.858;8.530;2023-01-29T15:20:25;5.78;;;5.22;;
45650;SDS011;31365;48.858;8.530;2023-01-29T15:23:03;5.68;;;5.18;;
45650;SDS011;31365;48.858;8.530;2023-01-29T15:25:53;7.00;;;5.50;;
45650;SDS011;31365;48.858;8.530;2023-01-29T15:28:27;6.47;;;5.88;;
45650;SDS011;31365;48.858;8.530;2023-01-29T15:30:58;15.97;;;14.30;;
45650;SDS011;31365;48.858;8.530;2023-01-29T15:33:31;8.98;;;8.10;;
45650;SDS011;31365;48.858;8.530;2023-01-29T15:36:02;18.42;;;15.60;;
45650;SDS011;31365;48.858;8.530;2023-01-29T15:38:34;8.82;;;8.02;;
45650;SDS011;31365;48.858;8.530;2023-01-29T15:41:13;7.97;;;7.22;;
45650;SDS011;31365;48.858;8.530;2023-01-29T15:43:46;7.78;;;6.97;;
45650;SDS011;31365;48.858;8.530;2023-01-29T15:46:19;8.75;;;8.00;;
45650;SDS011;31365;48.858;8.530;2023-01-29T15:48:54;6.93;;;6.22;;